sensor_id;sensor_type;location;lat;lon;timestamp;temperature;humidity
25945;SHT31;13742;49.306;8.636;2023-06-10T00:00:32;23.48;47.68
25945;SHT31;13742;49.306;8.636;2023-06-10T00:01:34;23.44;47.85
25945;SHT31;13742;49.306;8.636;2023-06-10T00:02:32;23.42;47.77
25945;SHT31;13742;49.306;8.636;2023-06-10T00:03:32;23.41;47.68
25945;SHT31;13742;49.306;8.636;2023-06-10T00:04:32;23.40;47.90
25945;SHT31;13742;49.306;8.636;2023-06-10T00:05:32;23.38;47.92
25945;SHT31;13742;49.306;8.636;2023-06-10T00:06:37;23.35;48.00
25945;SHT31;13742;49.306;8.636;2023-06-10T00:07:32;23.30;48.17
25945;SHT31;13742;49.306;8.636;2023-06-10T00:08:33;23.25;48.41
25945;SHT31;13742;49.306;8.636;2023-06-10T00:09:32;23.25;48.64
25945;SHT31;13742;49.306;8.636;2023-06-10T00:10:35;23.22;48.43
25945;SHT31;13742;49.306;8.636;2023-06-10T00:11:32;23.21;48.94
25945;SHT31;13742;49.306;8.636;2023-06-10T00:12:37;23.17;49.00
25945;SHT31;13742;49.306;8.636;2023-06-10T00:13:32;23.15;49.16
25945;SHT31;13742;49.306;8.636;2023-06-10T00:14:36;23.13;49.25
25945;SHT31;13742;49.306;8.636;2023-06-10T00:15:32;23.10;49.40
25945;SHT31;13742;49.306;8.636;2023-06-10T00:16:32;23.04;49.65
25945;SHT31;13742;49.306;8.636;2023-06-10T00:17:32;23.01;49.41
25945;SHT31;13742;49.306;8.636;2023-06-10T00:18:32;22.97;49.73
25945;SHT31;13742;49.306;8.636;2023-06-10T00:19:32;22.97;49.58
25945;SHT31;13742;49.306;8.636;2023-06-10T00:20:32;22.95;49.94
25945;SHT31;13742;49.306;8.636;2023-06-10T00:21:37;22.93;49.84
25945;SHT31;13742;49.306;8.636;2023-06-10T00:22:32;22.89;49.72
25945;SHT31;13742;49.306;8.636;2023-06-10T00:23:37;22.84;50.28
25945;SHT31;13742;49.306;8.636;2023-06-10T00:24:32;22.82;49.96
25945;SHT31;13742;49.306;8.636;2023-06-10T00:25:34;22.82;49.79
25945;SHT31;13742;49.306;8.636;2023-06-10T00:26:32;22.80;49.71
25945;SHT31;13742;49.306;8.636;2023-06-10T00:27:35;22.80;49.80
25945;SHT31;13742;49.306;8.636;2023-06-10T00:28:32;22.74;49.93
25945;SHT31;13742;49.306;8.636;2023-06-10T00:29:32;22.73;49.69
25945;SHT31;13742;49.306;8.636;2023-06-10T00:30:32;22.73;50.00
25945;SHT31;13742;49.306;8.636;2023-06-10T00:31:33;22.72;49.92
25945;SHT31;13742;49.306;8.636;2023-06-10T00:32:33;22.70;49.82
25945;SHT31;13742;49.306;8.636;2023-06-10T00:33:32;22.67;49.95
25945;SHT31;13742;49.306;8.636;2023-06-10T00:34:32;22.70;50.21
25945;SHT31;13742;49.306;8.636;2023-06-10T00:35:32;22.70;49.89
25945;SHT31;13742;49.306;8.636;2023-06-10T00:36:32;22.67;50.39
25945;SHT31;13742;49.306;8.636;2023-06-10T00:37:32;22.64;49.93
25945;SHT31;13742;49.306;8.636;2023-06-10T00:38:32;22.62;50.44
25945;SHT31;13742;49.306;8.636;2023-06-10T00:39:32;22.60;50.00
25945;SHT31;13742;49.306;8.636;2023-06-10T00:40:38;22.59;50.82
25945;SHT31;13742;49.306;8.636;2023-06-10T00:41:33;22.56;50.62
25945;SHT31;13742;49.306;8.636;2023-06-10T00:42:32;22.56;50.74
25945;SHT31;13742;49.306;8.636;2023-06-10T00:43:32;22.56;51.17
25945;SHT31;13742;49.306;8.636;2023-06-10T00:44:32;22.52;50.89
25945;SHT31;13742;49.306;8.636;2023-06-10T00:45:32;22.52;51.63
25945;SHT31;13742;49.306;8.636;2023-06-10T00:46:33;22.47;51.47
25945;SHT31;13742;49.306;8.636;2023-06-10T00:47:32;22.46;50.93
25945;SHT31;13742;49.306;8.636;2023-06-10T00:48:32;22.46;51.29
25945;SHT31;13742;49.306;8.636;2023-06-10T00:49:32;22.45;51.14
25945;SHT31;13742;49.306;8.636;2023-06-10T00:50:32;22.40;51.72
25945;SHT31;13742;49.306;8.636;2023-06-10T00:51:32;22.38;51.79
25945;SHT31;13742;49.306;8.636;2023-06-10T00:52:33;22.38;51.30
25945;SHT31;13742;49.306;8.636;2023-06-10T00:53:32;22.38;51.81
25945;SHT31;13742;49.306;8.636;2023-06-10T00:54:33;22.32;52.08
25945;SHT31;13742;49.306;8.636;2023-06-10T00:55:32;22.25;52.66
25945;SHT31;13742;49.306;8.636;2023-06-10T00:56:32;22.16;52.82
25945;SHT31;13742;49.306;8.636;2023-06-10T00:57:32;22.18;52.72
25945;SHT31;13742;49.306;8.636;2023-06-10T00:58:32;22.14;52.96
25945;SHT31;13742;49.306;8.636;2023-06-10T00:59:32;22.14;52.76
25945;SHT31;13742;49.306;8.636;2023-06-10T01:00:32;22.12;52.68
25945;SHT31;13742;49.306;8.636;2023-06-10T01:01:32;22.01;53.24
25945;SHT31;13742;49.306;8.636;2023-06-10T01:02:32;22.00;53.25
25945;SHT31;13742;49.306;8.636;2023-06-10T01:03:37;21.98;52.95
25945;SHT31;13742;49.306;8.636;2023-06-10T01:04:32;21.95;52.81
25945;SHT31;13742;49.306;8.636;2023-06-10T01:05:32;21.94;52.35
25945;SHT31;13742;49.306;8.636;2023-06-10T01:07:41;21.87;53.06
25945;SHT31;13742;49.306;8.636;2023-06-10T01:08:41;21.90;52.82
25945;SHT31;13742;49.306;8.636;2023-06-10T01:09:38;21.75;53.95
25945;SHT31;13742;49.306;8.636;2023-06-10T01:10:41;21.74;53.41
25945;SHT31;13742;49.306;8.636;2023-06-10T01:11:44;21.77;52.77
25945;SHT31;13742;49.306;8.636;2023-06-10T01:12:39;21.80;52.83
25945;SHT31;13742;49.306;8.636;2023-06-10T01:13:35;21.84;53.46
25945;SHT31;13742;49.306;8.636;2023-06-10T01:14:32;21.82;52.88
25945;SHT31;13742;49.306;8.636;2023-06-10T01:15:32;21.82;52.73
25945;SHT31;13742;49.306;8.636;2023-06-10T01:16:33;21.84;52.56
25945;SHT31;13742;49.306;8.636;2023-06-10T01:17:32;21.81;53.73
25945;SHT31;13742;49.306;8.636;2023-06-10T01:18:32;21.78;53.48
25945;SHT31;13742;49.306;8.636;2023-06-10T01:19:32;21.75;53.30
25945;SHT31;13742;49.306;8.636;2023-06-10T01:20:32;21.73;53.40
25945;SHT31;13742;49.306;8.636;2023-06-10T01:21:32;21.73;53.24
25945;SHT31;13742;49.306;8.636;2023-06-10T01:22:32;21.70;53.13
25945;SHT31;13742;49.306;8.636;2023-06-10T01:23:32;21.70;53.59
25945;SHT31;13742;49.306;8.636;2023-06-10T01:24:34;21.65;53.88
25945;SHT31;13742;49.306;8.636;2023-06-10T01:25:38;21.61;54.10
25945;SHT31;13742;49.306;8.636;2023-06-10T01:26:33;21.64;53.49
25945;SHT31;13742;49.306;8.636;2023-06-10T01:27:36;21.60;53.56
25945;SHT31;13742;49.306;8.636;2023-06-10T01:29:37;21.56;54.03
25945;SHT31;13742;49.306;8.636;2023-06-10T01:32:40;21.53;54.48
25945;SHT31;13742;49.306;8.636;2023-06-10T01:33:36;21.39;54.67
25945;SHT31;13742;49.306;8.636;2023-06-10T01:34:32;21.36;53.97
25945;SHT31;13742;49.306;8.636;2023-06-10T01:35:32;21.39;53.34
25945;SHT31;13742;49.306;8.636;2023-06-10T01:36:33;21.42;53.87
25945;SHT31;13742;49.306;8.636;2023-06-10T01:37:33;21.42;53.37
25945;SHT31;13742;49.306;8.636;2023-06-10T01:38:39;21.37;54.24
25945;SHT31;13742;49.306;8.636;2023-06-10T01:39:32;21.37;53.72
25945;SHT31;13742;49.306;8.636;2023-06-10T01:40:32;21.40;54.52
25945;SHT31;13742;49.306;8.636;2023-06-10T01:41:32;21.29;54.87
25945;SHT31;13742;49.306;8.636;2023-06-10T01:42:32;21.25;54.94
25945;SHT31;13742;49.306;8.636;2023-06-10T01:43:37;21.20;54.78
25945;SHT31;13742;49.306;8.636;2023-06-10T01:44:32;21.12;55.26
25945;SHT31;13742;49.306;8.636;2023-06-10T01:45:32;21.13;54.64
25945;SHT31;13742;49.306;8.636;2023-06-10T01:46:32;21.16;54.79
25945;SHT31;13742;49.306;8.636;2023-06-10T01:47:32;21.17;54.33
25945;SHT31;13742;49.306;8.636;2023-06-10T01:48:32;21.19;53.99
25945;SHT31;13742;49.306;8.636;2023-06-10T01:49:32;21.17;54.71
25945;SHT31;13742;49.306;8.636;2023-06-10T01:50:32;21.19;54.76
25945;SHT31;13742;49.306;8.636;2023-06-10T01:51:32;21.19;54.83
25945;SHT31;13742;49.306;8.636;2023-06-10T01:52:32;21.16;54.50
25945;SHT31;13742;49.306;8.636;2023-06-10T01:53:32;21.17;53.83
25945;SHT31;13742;49.306;8.636;2023-06-10T01:54:34;21.20;54.86
25945;SHT31;13742;49.306;8.636;2023-06-10T01:55:32;21.17;55.39
25945;SHT31;13742;49.306;8.636;2023-06-10T01:56:32;21.10;54.98
25945;SHT31;13742;49.306;8.636;2023-06-10T01:57:32;21.12;54.81
25945;SHT31;13742;49.306;8.636;2023-06-10T01:58:32;21.15;54.34
25945;SHT31;13742;49.306;8.636;2023-06-10T01:59:32;21.15;54.45
25945;SHT31;13742;49.306;8.636;2023-06-10T02:00:32;21.15;54.27
25945;SHT31;13742;49.306;8.636;2023-06-10T02:01:32;21.12;54.85
25945;SHT31;13742;49.306;8.636;2023-06-10T02:02:32;21.09;54.48
25945;SHT31;13742;49.306;8.636;2023-06-10T02:03:32;21.09;54.29
25945;SHT31;13742;49.306;8.636;2023-06-10T02:04:32;21.10;53.99
25945;SHT31;13742;49.306;8.636;2023-06-10T02:05:32;21.12;55.17
25945;SHT31;13742;49.306;8.636;2023-06-10T02:06:32;20.94;55.86
25945;SHT31;13742;49.306;8.636;2023-06-10T02:07:32;20.86;55.81
25945;SHT31;13742;49.306;8.636;2023-06-10T02:08:32;20.92;55.74
25945;SHT31;13742;49.306;8.636;2023-06-10T02:09:34;20.96;55.78
25945;SHT31;13742;49.306;8.636;2023-06-10T02:10:32;20.95;54.94
25945;SHT31;13742;49.306;8.636;2023-06-10T02:11:32;20.98;54.65
25945;SHT31;13742;49.306;8.636;2023-06-10T02:12:32;20.98;54.71
25945;SHT31;13742;49.306;8.636;2023-06-10T02:13:32;20.99;55.09
25945;SHT31;13742;49.306;8.636;2023-06-10T02:14:32;21.01;55.25
25945;SHT31;13742;49.306;8.636;2023-06-10T02:15:32;20.86;55.26
25945;SHT31;13742;49.306;8.636;2023-06-10T02:16:32;20.91;54.67
25945;SHT31;13742;49.306;8.636;2023-06-10T02:17:32;20.95;54.27
25945;SHT31;13742;49.306;8.636;2023-06-10T02:18:32;20.98;54.08
25945;SHT31;13742;49.306;8.636;2023-06-10T02:19:32;20.99;53.75
25945;SHT31;13742;49.306;8.636;2023-06-10T02:20:32;21.05;53.81
25945;SHT31;13742;49.306;8.636;2023-06-10T02:21:32;21.06;53.50
25945;SHT31;13742;49.306;8.636;2023-06-10T02:22:32;21.10;53.37
25945;SHT31;13742;49.306;8.636;2023-06-10T02:23:32;21.12;53.10
25945;SHT31;13742;49.306;8.636;2023-06-10T02:24:32;21.13;52.98
25945;SHT31;13742;49.306;8.636;2023-06-10T02:25:32;21.15;53.14
25945;SHT31;13742;49.306;8.636;2023-06-10T02:26:32;21.16;53.36
25945;SHT31;13742;49.306;8.636;2023-06-10T02:27:32;21.17;53.23
25945;SHT31;13742;49.306;8.636;2023-06-10T02:28:32;21.20;53.35
25945;SHT31;13742;49.306;8.636;2023-06-10T02:29:33;21.20;53.12
25945;SHT31;13742;49.306;8.636;2023-06-10T02:30:32;21.20;53.37
25945;SHT31;13742;49.306;8.636;2023-06-10T02:31:32;21.22;53.41
25945;SHT31;13742;49.306;8.636;2023-06-10T02:32:32;21.20;53.59
25945;SHT31;13742;49.306;8.636;2023-06-10T02:33:33;21.20;53.46
25945;SHT31;13742;49.306;8.636;2023-06-10T02:34:32;21.20;53.46
25945;SHT31;13742;49.306;8.636;2023-06-10T02:35:32;21.19;53.37
25945;SHT31;13742;49.306;8.636;2023-06-10T02:36:32;21.20;53.83
25945;SHT31;13742;49.306;8.636;2023-06-10T02:37:32;21.20;53.54
25945;SHT31;13742;49.306;8.636;2023-06-10T02:38:32;21.22;53.36
25945;SHT31;13742;49.306;8.636;2023-06-10T02:39:32;21.19;53.50
25945;SHT31;13742;49.306;8.636;2023-06-10T02:40:32;21.19;53.13
25945;SHT31;13742;49.306;8.636;2023-06-10T02:41:34;21.16;53.52
25945;SHT31;13742;49.306;8.636;2023-06-10T02:42:32;21.16;53.24
25945;SHT31;13742;49.306;8.636;2023-06-10T02:43:32;21.17;53.21
25945;SHT31;13742;49.306;8.636;2023-06-10T02:44:32;21.15;53.24
25945;SHT31;13742;49.306;8.636;2023-06-10T02:45:32;21.19;53.28
25945;SHT31;13742;49.306;8.636;2023-06-10T02:46:32;21.15;53.85
25945;SHT31;13742;49.306;8.636;2023-06-10T02:47:32;21.16;53.35
25945;SHT31;13742;49.306;8.636;2023-06-10T02:48:38;21.16;53.30
25945;SHT31;13742;49.306;8.636;2023-06-10T02:49:32;21.16;53.36
25945;SHT31;13742;49.306;8.636;2023-06-10T02:50:32;21.16;53.68
25945;SHT31;13742;49.306;8.636;2023-06-10T02:51:32;21.16;53.47
25945;SHT31;13742;49.306;8.636;2023-06-10T02:52:32;21.15;53.52
25945;SHT31;13742;49.306;8.636;2023-06-10T02:53:32;21.15;53.60
25945;SHT31;13742;49.306;8.636;2023-06-10T02:54:32;21.13;53.42
25945;SHT31;13742;49.306;8.636;2023-06-10T02:55:32;21.12;53.64
25945;SHT31;13742;49.306;8.636;2023-06-10T02:56:33;21.15;53.58
25945;SHT31;13742;49.306;8.636;2023-06-10T02:57:32;21.10;53.39
25945;SHT31;13742;49.306;8.636;2023-06-10T02:58:32;21.10;53.89
25945;SHT31;13742;49.306;8.636;2023-06-10T02:59:32;21.10;53.58
25945;SHT31;13742;49.306;8.636;2023-06-10T03:00:32;21.10;54.35
25945;SHT31;13742;49.306;8.636;2023-06-10T03:01:32;21.07;53.82
25945;SHT31;13742;49.306;8.636;2023-06-10T03:02:32;21.09;53.89
25945;SHT31;13742;49.306;8.636;2023-06-10T03:03:33;21.06;54.29
25945;SHT31;13742;49.306;8.636;2023-06-10T03:04:32;21.05;54.16
25945;SHT31;13742;49.306;8.636;2023-06-10T03:05:32;21.05;54.35
25945;SHT31;13742;49.306;8.636;2023-06-10T03:06:34;21.05;53.94
25945;SHT31;13742;49.306;8.636;2023-06-10T03:07:32;21.02;54.60
25945;SHT31;13742;49.306;8.636;2023-06-10T03:08:32;21.02;54.25
25945;SHT31;13742;49.306;8.636;2023-06-10T03:09:32;21.01;54.22
25945;SHT31;13742;49.306;8.636;2023-06-10T03:10:33;21.01;54.86
25945;SHT31;13742;49.306;8.636;2023-06-10T03:11:32;20.98;54.58
25945;SHT31;13742;49.306;8.636;2023-06-10T03:12:32;20.96;54.28
25945;SHT31;13742;49.306;8.636;2023-06-10T03:13:32;20.96;54.05
25945;SHT31;13742;49.306;8.636;2023-06-10T03:14:32;20.94;54.68
25945;SHT31;13742;49.306;8.636;2023-06-10T03:15:33;20.94;55.27
25945;SHT31;13742;49.306;8.636;2023-06-10T03:16:32;20.89;54.62
25945;SHT31;13742;49.306;8.636;2023-06-10T03:17:32;20.91;54.37
25945;SHT31;13742;49.306;8.636;2023-06-10T03:18:32;20.86;54.29
25945;SHT31;13742;49.306;8.636;2023-06-10T03:19:33;20.86;54.47
25945;SHT31;13742;49.306;8.636;2023-06-10T03:20:33;20.86;54.33
25945;SHT31;13742;49.306;8.636;2023-06-10T03:21:32;20.88;54.87
25945;SHT31;13742;49.306;8.636;2023-06-10T03:22:32;20.85;55.05
25945;SHT31;13742;49.306;8.636;2023-06-10T03:23:33;20.85;54.51
25945;SHT31;13742;49.306;8.636;2023-06-10T03:24:32;20.85;55.00
25945;SHT31;13742;49.306;8.636;2023-06-10T03:25:32;20.81;55.83
25945;SHT31;13742;49.306;8.636;2023-06-10T03:26:32;20.81;55.35
25945;SHT31;13742;49.306;8.636;2023-06-10T03:27:32;20.79;55.39
25945;SHT31;13742;49.306;8.636;2023-06-10T03:28:32;20.81;55.64
25945;SHT31;13742;49.306;8.636;2023-06-10T03:29:32;20.81;55.40
25945;SHT31;13742;49.306;8.636;2023-06-10T03:30:32;20.78;55.31
25945;SHT31;13742;49.306;8.636;2023-06-10T03:31:33;20.76;55.08
25945;SHT31;13742;49.306;8.636;2023-06-10T03:32:32;20.75;54.86
25945;SHT31;13742;49.306;8.636;2023-06-10T03:33:32;20.75;55.05
25945;SHT31;13742;49.306;8.636;2023-06-10T03:34:32;20.76;55.05
25945;SHT31;13742;49.306;8.636;2023-06-10T03:35:32;20.75;55.15
25945;SHT31;13742;49.306;8.636;2023-06-10T03:36:32;20.74;55.26
25945;SHT31;13742;49.306;8.636;2023-06-10T03:37:32;20.74;54.99
25945;SHT31;13742;49.306;8.636;2023-06-10T03:38:32;20.72;55.52
25945;SHT31;13742;49.306;8.636;2023-06-10T03:39:32;20.75;55.02
25945;SHT31;13742;49.306;8.636;2023-06-10T03:40:32;20.76;55.27
25945;SHT31;13742;49.306;8.636;2023-06-10T03:41:32;20.72;55.65
25945;SHT31;13742;49.306;8.636;2023-06-10T03:42:32;20.72;55.53
25945;SHT31;13742;49.306;8.636;2023-06-10T03:43:32;20.70;55.69
25945;SHT31;13742;49.306;8.636;2023-06-10T03:44:32;20.68;55.45
25945;SHT31;13742;49.306;8.636;2023-06-10T03:45:32;20.67;55.55
25945;SHT31;13742;49.306;8.636;2023-06-10T03:46:32;20.64;56.29
25945;SHT31;13742;49.306;8.636;2023-06-10T03:47:34;20.67;55.85
25945;SHT31;13742;49.306;8.636;2023-06-10T03:48:32;20.61;55.81
25945;SHT31;13742;49.306;8.636;2023-06-10T03:49:33;20.62;55.63
25945;SHT31;13742;49.306;8.636;2023-06-10T03:50:32;20.64;55.73
25945;SHT31;13742;49.306;8.636;2023-06-10T03:51:32;20.59;56.32
25945;SHT31;13742;49.306;8.636;2023-06-10T03:52:32;20.61;55.90
25945;SHT31;13742;49.306;8.636;2023-06-10T03:53:32;20.61;55.94
25945;SHT31;13742;49.306;8.636;2023-06-10T03:54:34;20.59;56.01
25945;SHT31;13742;49.306;8.636;2023-06-10T03:55:32;20.57;56.58
25945;SHT31;13742;49.306;8.636;2023-06-10T03:56:32;20.58;55.90
25945;SHT31;13742;49.306;8.636;2023-06-10T03:57:32;20.54;56.01
25945;SHT31;13742;49.306;8.636;2023-06-10T03:58:32;20.54;55.86
25945;SHT31;13742;49.306;8.636;2023-06-10T03:59:32;20.50;56.28
25945;SHT31;13742;49.306;8.636;2023-06-10T04:00:41;20.50;55.86
25945;SHT31;13742;49.306;8.636;2023-06-10T04:01:33;20.51;56.62
25945;SHT31;13742;49.306;8.636;2023-06-10T04:02:32;20.50;56.47
25945;SHT31;13742;49.306;8.636;2023-06-10T04:03:33;20.50;56.21
25945;SHT31;13742;49.306;8.636;2023-06-10T04:04:32;20.50;55.91
25945;SHT31;13742;49.306;8.636;2023-06-10T04:05:32;20.50;56.01
25945;SHT31;13742;49.306;8.636;2023-06-10T04:06:32;20.47;56.61
25945;SHT31;13742;49.306;8.636;2023-06-10T04:07:32;20.46;56.66
25945;SHT31;13742;49.306;8.636;2023-06-10T04:08:33;20.47;56.43
25945;SHT31;13742;49.306;8.636;2023-06-10T04:09:32;20.47;56.66
25945;SHT31;13742;49.306;8.636;2023-06-10T04:10:32;20.46;56.41
25945;SHT31;13742;49.306;8.636;2023-06-10T04:11:32;20.47;56.67
25945;SHT31;13742;49.306;8.636;2023-06-10T04:12:32;20.44;56.35
25945;SHT31;13742;49.306;8.636;2023-06-10T04:13:32;20.44;56.38
25945;SHT31;13742;49.306;8.636;2023-06-10T04:14:32;20.47;56.31
25945;SHT31;13742;49.306;8.636;2023-06-10T04:15:34;20.44;56.71
25945;SHT31;13742;49.306;8.636;2023-06-10T04:16:32;20.43;56.74
25945;SHT31;13742;49.306;8.636;2023-06-10T04:17:32;20.44;56.72
25945;SHT31;13742;49.306;8.636;2023-06-10T04:18:32;20.46;56.54
25945;SHT31;13742;49.306;8.636;2023-06-10T04:19:32;20.43;56.35
25945;SHT31;13742;49.306;8.636;2023-06-10T04:20:32;20.46;57.03
25945;SHT31;13742;49.306;8.636;2023-06-10T04:21:33;20.44;56.37
25945;SHT31;13742;49.306;8.636;2023-06-10T04:22:32;20.48;56.29
25945;SHT31;13742;49.306;8.636;2023-06-10T04:23:32;20.43;56.11
25945;SHT31;13742;49.306;8.636;2023-06-10T04:24:32;20.44;56.93
25945;SHT31;13742;49.306;8.636;2023-06-10T04:25:32;20.44;57.11
25945;SHT31;13742;49.306;8.636;2023-06-10T04:26:32;20.43;56.89
25945;SHT31;13742;49.306;8.636;2023-06-10T04:27:32;20.46;57.21
25945;SHT31;13742;49.306;8.636;2023-06-10T04:28:32;20.44;57.35
25945;SHT31;13742;49.306;8.636;2023-06-10T04:29:32;20.46;56.75
25945;SHT31;13742;49.306;8.636;2023-06-10T04:30:32;20.46;56.67
25945;SHT31;13742;49.306;8.636;2023-06-10T04:31:32;20.44;56.42
25945;SHT31;13742;49.306;8.636;2023-06-10T04:32:32;20.46;56.40
25945;SHT31;13742;49.306;8.636;2023-06-10T04:33:32;20.50;56.36
25945;SHT31;13742;49.306;8.636;2023-06-10T04:34:34;20.51;56.39
25945;SHT31;13742;49.306;8.636;2023-06-10T04:35:32;20.50;57.07
25945;SHT31;13742;49.306;8.636;2023-06-10T04:36:32;20.51;56.53
25945;SHT31;13742;49.306;8.636;2023-06-10T04:37:32;20.51;56.24
25945;SHT31;13742;49.306;8.636;2023-06-10T04:38:32;20.54;56.47
25945;SHT31;13742;49.306;8.636;2023-06-10T04:39:32;20.57;56.39
25945;SHT31;13742;49.306;8.636;2023-06-10T04:40:32;20.55;56.25
25945;SHT31;13742;49.306;8.636;2023-06-10T04:41:32;20.61;56.70
25945;SHT31;13742;49.306;8.636;2023-06-10T04:42:32;20.61;57.18
25945;SHT31;13742;49.306;8.636;2023-06-10T04:43:32;20.62;56.57
25945;SHT31;13742;49.306;8.636;2023-06-10T04:44:32;20.61;56.41
25945;SHT31;13742;49.306;8.636;2023-06-10T04:45:32;20.64;57.15
25945;SHT31;13742;49.306;8.636;2023-06-10T04:46:32;20.61;57.01
25945;SHT31;13742;49.306;8.636;2023-06-10T04:47:33;20.64;56.61
25945;SHT31;13742;49.306;8.636;2023-06-10T04:48:32;20.61;56.59
25945;SHT31;13742;49.306;8.636;2023-06-10T04:49:32;20.62;56.33
25945;SHT31;13742;49.306;8.636;2023-06-10T04:50:35;20.62;56.56
25945;SHT31;13742;49.306;8.636;2023-06-10T04:51:32;20.65;56.83
25945;SHT31;13742;49.306;8.636;2023-06-10T04:52:32;20.64;56.58
25945;SHT31;13742;49.306;8.636;2023-06-10T04:53:32;20.62;56.91
25945;SHT31;13742;49.306;8.636;2023-06-10T04:54:32;20.70;56.57
25945;SHT31;13742;49.306;8.636;2023-06-10T04:55:33;20.67;57.17
25945;SHT31;13742;49.306;8.636;2023-06-10T04:56:32;20.70;57.11
25945;SHT31;13742;49.306;8.636;2023-06-10T04:57:32;20.72;56.57
25945;SHT31;13742;49.306;8.636;2023-06-10T04:58:32;20.72;56.43
25945;SHT31;13742;49.306;8.636;2023-06-10T04:59:32;20.72;56.32
25945;SHT31;13742;49.306;8.636;2023-06-10T05:00:32;20.78;57.19
25945;SHT31;13742;49.306;8.636;2023-06-10T05:01:32;20.75;56.82
25945;SHT31;13742;49.306;8.636;2023-06-10T05:02:32;20.75;56.68
25945;SHT31;13742;49.306;8.636;2023-06-10T05:03:32;20.81;56.61
25945;SHT31;13742;49.306;8.636;2023-06-10T05:04:32;20.76;56.89
25945;SHT31;13742;49.306;8.636;2023-06-10T05:05:32;20.81;56.92
25945;SHT31;13742;49.306;8.636;2023-06-10T05:06:32;20.81;57.03
25945;SHT31;13742;49.306;8.636;2023-06-10T05:07:32;20.78;57.09
25945;SHT31;13742;49.306;8.636;2023-06-10T05:08:32;20.79;57.06
25945;SHT31;13742;49.306;8.636;2023-06-10T05:09:32;20.82;56.96
25945;SHT31;13742;49.306;8.636;2023-06-10T05:10:32;20.81;56.77
25945;SHT31;13742;49.306;8.636;2023-06-10T05:11:32;20.82;56.73
25945;SHT31;13742;49.306;8.636;2023-06-10T05:12:32;20.84;56.99
25945;SHT31;13742;49.306;8.636;2023-06-10T05:13:32;20.85;56.55
25945;SHT31;13742;49.306;8.636;2023-06-10T05:14:32;20.85;56.89
25945;SHT31;13742;49.306;8.636;2023-06-10T05:15:32;20.86;56.78
25945;SHT31;13742;49.306;8.636;2023-06-10T05:16:32;20.89;56.94
25945;SHT31;13742;49.306;8.636;2023-06-10T05:17:32;20.89;56.72
25945;SHT31;13742;49.306;8.636;2023-06-10T05:18:32;20.91;56.93
25945;SHT31;13742;49.306;8.636;2023-06-10T05:19:32;20.94;57.20
25945;SHT31;13742;49.306;8.636;2023-06-10T05:20:32;20.94;56.88
25945;SHT31;13742;49.306;8.636;2023-06-10T05:21:32;20.96;56.48
25945;SHT31;13742;49.306;8.636;2023-06-10T05:22:32;20.96;56.83
25945;SHT31;13742;49.306;8.636;2023-06-10T05:23:32;20.99;57.16
25945;SHT31;13742;49.306;8.636;2023-06-10T05:24:32;21.02;56.60
25945;SHT31;13742;49.306;8.636;2023-06-10T05:25:32;21.01;57.09
25945;SHT31;13742;49.306;8.636;2023-06-10T05:26:33;21.03;56.49
25945;SHT31;13742;49.306;8.636;2023-06-10T05:27:32;21.05;56.36
25945;SHT31;13742;49.306;8.636;2023-06-10T05:28:32;21.06;56.18
25945;SHT31;13742;49.306;8.636;2023-06-10T05:29:32;21.06;56.28
25945;SHT31;13742;49.306;8.636;2023-06-10T05:30:31;21.09;56.28
25945;SHT31;13742;49.306;8.636;2023-06-10T05:31:32;21.10;56.45
25945;SHT31;13742;49.306;8.636;2023-06-10T05:32:32;21.13;56.19
25945;SHT31;13742;49.306;8.636;2023-06-10T05:33:31;21.15;56.13
25945;SHT31;13742;49.306;8.636;2023-06-10T05:34:32;21.19;56.27
25945;SHT31;13742;49.306;8.636;2023-06-10T05:35:31;21.17;56.02
25945;SHT31;13742;49.306;8.636;2023-06-10T05:36:32;21.22;56.07
25945;SHT31;13742;49.306;8.636;2023-06-10T05:37:34;21.22;56.08
25945;SHT31;13742;49.306;8.636;2023-06-10T05:38:31;21.23;56.01
25945;SHT31;13742;49.306;8.636;2023-06-10T05:39:32;21.27;56.24
25945;SHT31;13742;49.306;8.636;2023-06-10T05:40:32;21.27;56.30
25945;SHT31;13742;49.306;8.636;2023-06-10T05:41:32;21.27;56.04
25945;SHT31;13742;49.306;8.636;2023-06-10T05:42:32;21.27;55.91
25945;SHT31;13742;49.306;8.636;2023-06-10T05:43:32;21.32;56.10
25945;SHT31;13742;49.306;8.636;2023-06-10T05:44:32;21.32;56.20
25945;SHT31;13742;49.306;8.636;2023-06-10T05:45:32;21.30;56.29
25945;SHT31;13742;49.306;8.636;2023-06-10T05:46:32;21.33;56.22
25945;SHT31;13742;49.306;8.636;2023-06-10T05:47:32;21.35;55.93
25945;SHT31;13742;49.306;8.636;2023-06-10T05:48:31;21.35;56.07
25945;SHT31;13742;49.306;8.636;2023-06-10T05:49:32;21.37;55.99
25945;SHT31;13742;49.306;8.636;2023-06-10T05:50:39;21.37;55.96
25945;SHT31;13742;49.306;8.636;2023-06-10T05:51:32;21.40;55.99
25945;SHT31;13742;49.306;8.636;2023-06-10T05:52:32;21.43;56.10
25945;SHT31;13742;49.306;8.636;2023-06-10T05:53:32;21.44;56.36
25945;SHT31;13742;49.306;8.636;2023-06-10T05:54:32;21.46;56.11
25945;SHT31;13742;49.306;8.636;2023-06-10T05:55:32;21.49;56.46
25945;SHT31;13742;49.306;8.636;2023-06-10T05:56:32;21.52;55.95
25945;SHT31;13742;49.306;8.636;2023-06-10T05:57:32;21.50;55.84
25945;SHT31;13742;49.306;8.636;2023-06-10T05:58:32;21.53;55.84
25945;SHT31;13742;49.306;8.636;2023-06-10T05:59:31;21.52;56.09
25945;SHT31;13742;49.306;8.636;2023-06-10T06:00:31;21.54;55.93
25945;SHT31;13742;49.306;8.636;2023-06-10T06:01:31;21.57;56.06
25945;SHT31;13742;49.306;8.636;2023-06-10T06:02:31;21.61;56.27
25945;SHT31;13742;49.306;8.636;2023-06-10T06:03:31;21.63;56.14
25945;SHT31;13742;49.306;8.636;2023-06-10T06:04:32;21.64;56.40
25945;SHT31;13742;49.306;8.636;2023-06-10T06:05:36;21.67;55.75
25945;SHT31;13742;49.306;8.636;2023-06-10T06:06:31;21.65;55.49
25945;SHT31;13742;49.306;8.636;2023-06-10T06:07:32;21.70;55.92
25945;SHT31;13742;49.306;8.636;2023-06-10T06:08:32;21.70;55.30
25945;SHT31;13742;49.306;8.636;2023-06-10T06:09:31;21.46;56.54
25945;SHT31;13742;49.306;8.636;2023-06-10T06:10:32;21.43;56.43
25945;SHT31;13742;49.306;8.636;2023-06-10T06:11:33;21.30;56.68
25945;SHT31;13742;49.306;8.636;2023-06-10T06:12:31;21.22;56.78
25945;SHT31;13742;49.306;8.636;2023-06-10T06:13:31;21.20;56.63
25945;SHT31;13742;49.306;8.636;2023-06-10T06:14:32;21.29;56.47
25945;SHT31;13742;49.306;8.636;2023-06-10T06:15:31;21.37;57.09
25945;SHT31;13742;49.306;8.636;2023-06-10T06:16:32;21.42;56.67
25945;SHT31;13742;49.306;8.636;2023-06-10T06:17:31;21.44;56.57
25945;SHT31;13742;49.306;8.636;2023-06-10T06:18:32;21.52;56.85
25945;SHT31;13742;49.306;8.636;2023-06-10T06:19:32;21.53;56.15
25945;SHT31;13742;49.306;8.636;2023-06-10T06:20:32;21.52;56.73
25945;SHT31;13742;49.306;8.636;2023-06-10T06:21:31;21.54;56.69
25945;SHT31;13742;49.306;8.636;2023-06-10T06:22:32;21.56;56.40